sensor_id;sensor_type;location;lat;lon;timestamp;pressure;altitude;pressure_sealevel;temperature;humidity
62458;BME280;48509;52.122;5.250;2024-03-02T00:00:39;99706.0;;;10.54;84.48
62458;BME280;48509;52.122;5.250;2024-03-02T00:03:54;99714.0;;;10.6;85.37
62458;BME280;48509;52.122;5.250;2024-03-02T00:05:30;99714.0;;;10.63;85.57
62458;BME280;48509;52.122;5.250;2024-03-02T00:07:07;99708.0;;;10.53;85.92
62458;BME280;48509;52.122;5.250;2024-03-02T00:10:22;99723.0;;;10.6;84.65
62458;BME280;48509;52.122;5.250;2024-03-02T00:11:58;99731.0;;;10.65;85.51
62458;BME280;48509;52.122;5.250;2024-03-02T00:13:36;99735.0;;;10.66;85.84
62458;BME280;48509;52.122;5.250;2024-03-02T00:15:31;99744.0;;;10.63;86.5
62458;BME280;48509;52.122;5.250;2024-03-02T00:17:25;99737.0;;;10.62;85.97
62458;BME280;48509;52.122;5.250;2024-03-02T00:20:39;99755.0;;;10.72;86.53
62458;BME280;48509;52.122;5.250;2024-03-02T00:22:15;99767.0;;;10.75;86.03
62458;BME280;48509;52.122;5.250;2024-03-02T00:23:52;99763.0;;;10.72;86.53
62458;BME280;48509;52.122;5.250;2024-03-02T00:27:14;99805.0;;;10.73;86.62
62458;BME280;48509;52.122;5.250;2024-03-02T00:28:53;99828.0;;;10.55;87.23
62458;BME280;48509;52.122;5.250;2024-03-02T00:30:49;99825.0;;;10.74;87.12
62458;BME280;48509;52.122;5.250;2024-03-02T00:32:27;99821.0;;;10.83;87.86
62458;BME280;48509;52.122;5.250;2024-03-02T00:34:13;99820.0;;;10.66;89.72
62458;BME280;48509;52.122;5.250;2024-03-02T00:37:26;99821.0;;;10.61;90.32
62458;BME280;48509;52.122;5.250;2024-03-02T00:39:02;99822.0;;;10.57;90.35
62458;BME280;48509;52.122;5.250;2024-03-02T00:40:39;99822.0;;;10.47;92.31
62458;BME280;48509;52.122;5.250;2024-03-02T00:43:57;99824.0;;;10.51;91.66
62458;BME280;48509;52.122;5.250;2024-03-02T00:45:34;99822.0;;;10.44;93.75
62458;BME280;48509;52.122;5.250;2024-03-02T00:47:10;99819.0;;;10.41;93.37
62458;BME280;48509;52.122;5.250;2024-03-02T00:48:50;99831.0;;;10.54;93.68
62458;BME280;48509;52.122;5.250;2024-03-02T00:52:06;99830.0;;;10.35;93.64
62458;BME280;48509;52.122;5.250;2024-03-02T00:53:42;99828.0;;;10.1;96.01
62458;BME280;48509;52.122;5.250;2024-03-02T00:55:20;99830.0;;;10.23;96.6
62458;BME280;48509;52.122;5.250;2024-03-02T00:58:36;99825.0;;;10.23;97.58
62458;BME280;48509;52.122;5.250;2024-03-02T01:00:13;99820.0;;;10.18;99.25
62458;BME280;48509;52.122;5.250;2024-03-02T01:01:49;99825.0;;;10.05;100.0
62458;BME280;48509;52.122;5.250;2024-03-02T01:03:25;99832.0;;;10.06;100.0
62458;BME280;48509;52.122;5.250;2024-03-02T01:06:37;99838.0;;;10.03;100.0
62458;BME280;48509;52.122;5.250;2024-03-02T01:08:13;99837.0;;;9.77;100.0
62458;BME280;48509;52.122;5.250;2024-03-02T01:09:49;99824.0;;;9.76;100.0
62458;BME280;48509;52.122;5.250;2024-03-02T01:13:02;99819.0;;;9.89;100.0
62458;BME280;48509;52.122;5.250;2024-03-02T01:14:38;99817.0;;;9.67;100.0
62458;BME280;48509;52.122;5.250;2024-03-02T01:16:14;99831.0;;;9.61;100.0
62458;BME280;48509;52.122;5.250;2024-03-02T01:19:26;99838.0;;;9.52;100.0
62458;BME280;48509;52.122;5.250;2024-03-02T01:21:03;99833.0;;;9.53;100.0
62458;BME280;48509;52.122;5.250;2024-03-02T01:22:39;99835.0;;;9.55;100.0
62458;BME280;48509;52.122;5.250;2024-03-02T01:24:16;99838.0;;;9.47;100.0
62458;BME280;48509;52.122;5.250;2024-03-02T01:27:29;99841.0;;;9.33;100.0
62458;BME280;48509;52.122;5.250;2024-03-02T01:29:05;99838.0;;;9.31;100.0
62458;BME280;48509;52.122;5.250;2024-03-02T01:30:41;99838.0;;;9.43;100.0
62458;BME280;48509;52.122;5.250;2024-03-02T01:33:53;99836.0;;;9.43;100.0
62458;BME280;48509;52.122;5.250;2024-03-02T01:35:29;99840.0;;;9.39;100.0
62458;BME280;48509;52.122;5.250;2024-03-02T01:37:05;99844.0;;;9.39;100.0
62458;BME280;48509;52.122;5.250;2024-03-02T01:40:18;99853.0;;;9.35;100.0
62458;BME280;48509;52.122;5.250;2024-03-02T01:41:54;99847.0;;;9.4;100.0
62458;BME280;48509;52.122;5.250;2024-03-02T01:43:30;99846.0;;;9.46;100.0
62458;BME280;48509;52.122;5.250;2024-03-02T01:45:07;99847.0;;;9.35;100.0
62458;BME280;48509;52.122;5.250;2024-03-02T01:48:20;99852.0;;;9.41;100.0
62458;BME280;48509;52.122;5.250;2024-03-02T01:49:56;99867.0;;;9.46;100.0
62458;BME280;48509;52.122;5.250;2024-03-02T01:51:32;99865.0;;;9.52;100.0
62458;BME280;48509;52.122;5.250;2024-03-02T01:54:44;99864.0;;;9.39;100.0
62458;BME280;48509;52.122;5.250;2024-03-02T01:56:21;99862.0;;;9.3;100.0
62458;BME280;48509;52.122;5.250;2024-03-02T01:57:57;99869.0;;;9.35;100.0
62458;BME280;48509;52.122;5.250;2024-03-02T02:01:09;99867.0;;;9.4;100.0
62458;BME280;48509;52.122;5.250;2024-03-02T02:02:45;99860.0;;;9.36;100.0
62458;BME280;48509;52.122;5.250;2024-03-02T02:04:21;99853.0;;;9.25;100.0
62458;BME280;48509;52.122;5.250;2024-03-02T02:07:34;99853.0;;;9.32;100.0
62458;BME280;48509;52.122;5.250;2024-03-02T02:09:11;99855.0;;;9.36;100.0
62458;BME280;48509;52.122;5.250;2024-03-02T02:10:47;99862.0;;;9.21;100.0
62458;BME280;48509;52.122;5.250;2024-03-02T02:12:23;99862.0;;;9.24;100.0
62458;BME280;48509;52.122;5.250;2024-03-02T02:15:36;99867.0;;;9.24;100.0
62458;BME280;48509;52.122;5.250;2024-03-02T02:17:12;99864.0;;;9.25;100.0
62458;BME280;48509;52.122;5.250;2024-03-02T02:18:48;99869.0;;;9.16;100.0
62458;BME280;48509;52.122;5.250;2024-03-02T02:22:01;99863.0;;;9.14;100.0
62458;BME280;48509;52.122;5.250;2024-03-02T02:23:37;99853.0;;;9.14;100.0
62458;BME280;48509;52.122;5.250;2024-03-02T02:25:14;99846.0;;;9.14;100.0
62458;BME280;48509;52.122;5.250;2024-03-02T02:28:26;99850.0;;;9.1;100.0
62458;BME280;48509;52.122;5.250;2024-03-02T02:30:03;99851.0;;;9.08;100.0
62458;BME280;48509;52.122;5.250;2024-03-02T02:31:40;99841.0;;;9.1;100.0
62458;BME280;48509;52.122;5.250;2024-03-02T02:33:16;99841.0;;;9.17;100.0
62458;BME280;48509;52.122;5.250;2024-03-02T02:36:28;99855.0;;;9.02;100.0
62458;BME280;48509;52.122;5.250;2024-03-02T02:38:05;99858.0;;;8.98;100.0
62458;BME280;48509;52.122;5.250;2024-03-02T02:39:41;99859.0;;;8.94;100.0
62458;BME280;48509;52.122;5.250;2024-03-02T02:42:53;99862.0;;;8.92;100.0
62458;BME280;48509;52.122;5.250;2024-03-02T02:44:29;99849.0;;;8.9;100.0
62458;BME280;48509;52.122;5.250;2024-03-02T02:46:05;99845.0;;;9.0;100.0
62458;BME280;48509;52.122;5.250;2024-03-02T02:49:18;99858.0;;;8.97;100.0
62458;BME280;48509;52.122;5.250;2024-03-02T02:50:55;99861.0;;;9.05;100.0
62458;BME280;48509;52.122;5.250;2024-03-02T02:52:31;99855.0;;;9.01;100.0
62458;BME280;48509;52.122;5.250;2024-03-02T02:54:08;99858.0;;;8.88;100.0
62458;BME280;48509;52.122;5.250;2024-03-02T02:57:20;99858.0;;;8.86;100.0
62458;BME280;48509;52.122;5.250;2024-03-02T02:58:56;99857.0;;;8.9;100.0
62458;BME280;48509;52.122;5.250;2024-03-02T03:00:32;99857.0;;;9.06;100.0
62458;BME280;48509;52.122;5.250;2024-03-02T03:03:45;99859.0;;;9.14;100.0
62458;BME280;48509;52.122;5.250;2024-03-02T03:05:22;99859.0;;;8.86;100.0
62458;BME280;48509;52.122;5.250;2024-03-02T03:06:58;99863.0;;;8.89;100.0
62458;BME280;48509;52.122;5.250;2024-03-02T03:10:10;99859.0;;;8.91;100.0
62458;BME280;48509;52.122;5.250;2024-03-02T03:11:46;99855.0;;;8.96;100.0
62458;BME280;48509;52.122;5.250;2024-03-02T03:13:22;99859.0;;;8.91;100.0
62458;BME280;48509;52.122;5.250;2024-03-02T03:16:36;99855.0;;;8.91;100.0
62458;BME280;48509;52.122;5.250;2024-03-02T03:18:12;99862.0;;;8.8;100.0
62458;BME280;48509;52.122;5.250;2024-03-02T03:19:48;99863.0;;;8.92;100.0
62458;BME280;48509;52.122;5.250;2024-03-02T03:21:24;99860.0;;;8.88;100.0
62458;BME280;48509;52.122;5.250;2024-03-02T03:24:36;99861.0;;;8.77;100.0
62458;BME280;48509;52.122;5.250;2024-03-02T03:26:12;99870.0;;;8.75;100.0
62458;BME280;48509;52.122;5.250;2024-03-02T03:27:48;99864.0;;;8.73;100.0
62458;BME280;48509;52.122;5.250;2024-03-02T03:31:01;99865.0;;;8.74;100.0
62458;BME280;48509;52.122;5.250;2024-03-02T03:32:37;99869.0;;;8.69;100.0
62458;BME280;48509;52.122;5.250;2024-03-02T03:34:13;99870.0;;;8.72;100.0
62458;BME280;48509;52.122;5.250;2024-03-02T03:37:25;99867.0;;;8.74;100.0
62458;BME280;48509;52.122;5.250;2024-03-02T03:39:04;99877.0;;;8.73;100.0
62458;BME280;48509;52.122;5.250;2024-03-02T03:40:40;99873.0;;;8.74;100.0
62458;BME280;48509;52.122;5.250;2024-03-02T03:42:17;99874.0;;;8.72;100.0
62458;BME280;48509;52.122;5.250;2024-03-02T03:45:30;99877.0;;;8.67;100.0
62458;BME280;48509;52.122;5.250;2024-03-02T03:47:06;99872.0;;;8.77;100.0
62458;BME280;48509;52.122;5.250;2024-03-02T03:48:42;99876.0;;;8.82;100.0
62458;BME280;48509;52.122;5.250;2024-03-02T03:51:54;99880.0;;;8.76;100.0
62458;BME280;48509;52.122;5.250;2024-03-02T03:53:30;99880.0;;;8.94;100.0
62458;BME280;48509;52.122;5.250;2024-03-02T03:58:20;99885.0;;;8.93;100.0
62458;BME280;48509;52.122;5.250;2024-03-02T03:59:56;99885.0;;;8.81;100.0
62458;BME280;48509;52.122;5.250;2024-03-02T04:01:32;99887.0;;;8.83;100.0
62458;BME280;48509;52.122;5.250;2024-03-02T04:04:44;99887.0;;;8.93;100.0
62458;BME280;48509;52.122;5.250;2024-03-02T04:06:20;99887.0;;;8.89;100.0
62458;BME280;48509;52.122;5.250;2024-03-02T04:07:56;99888.0;;;8.89;100.0
62458;BME280;48509;52.122;5.250;2024-03-02T04:09:32;99893.0;;;8.89;100.0
62458;BME280;48509;52.122;5.250;2024-03-02T04:12:45;99887.0;;;8.91;100.0
62458;BME280;48509;52.122;5.250;2024-03-02T04:14:21;99900.0;;;8.86;100.0
62458;BME280;48509;52.122;5.250;2024-03-02T04:15:57;99901.0;;;8.92;100.0
62458;BME280;48509;52.122;5.250;2024-03-02T04:19:09;99905.0;;;9.11;100.0
62458;BME280;48509;52.122;5.250;2024-03-02T04:20:45;99906.0;;;9.11;100.0
62458;BME280;48509;52.122;5.250;2024-03-02T04:22:21;99905.0;;;9.06;100.0
62458;BME280;48509;52.122;5.250;2024-03-02T04:25:34;99905.0;;;9.16;100.0
62458;BME280;48509;52.122;5.250;2024-03-02T04:27:10;99901.0;;;9.26;100.0
62458;BME280;48509;52.122;5.250;2024-03-02T04:28:46;99898.0;;;9.19;100.0
62458;BME280;48509;52.122;5.250;2024-03-02T04:30:22;99894.0;;;9.26;100.0
62458;BME280;48509;52.122;5.250;2024-03-02T04:33:34;99895.0;;;9.25;100.0
62458;BME280;48509;52.122;5.250;2024-03-02T04:35:10;99902.0;;;9.13;100.0
62458;BME280;48509;52.122;5.250;2024-03-02T04:36:46;99898.0;;;9.19;100.0
62458;BME280;48509;52.122;5.250;2024-03-02T04:39:58;99901.0;;;9.28;100.0
62458;BME280;48509;52.122;5.250;2024-03-02T04:41:35;99903.0;;;9.14;100.0
62458;BME280;48509;52.122;5.250;2024-03-02T04:43:11;99905.0;;;9.13;100.0
62458;BME280;48509;52.122;5.250;2024-03-02T04:46:23;99907.0;;;9.14;100.0
62458;BME280;48509;52.122;5.250;2024-03-02T04:47:59;99908.0;;;9.28;100.0
62458;BME280;48509;52.122;5.250;2024-03-02T04:49:35;99909.0;;;9.14;100.0
62458;BME280;48509;52.122;5.250;2024-03-02T04:52:47;99911.0;;;9.01;100.0
62458;BME280;48509;52.122;5.250;2024-03-02T04:54:24;99914.0;;;8.92;100.0
62458;BME280;48509;52.122;5.250;2024-03-02T04:56:00;99914.0;;;8.73;100.0
62458;BME280;48509;52.122;5.250;2024-03-02T04:57:36;99921.0;;;8.85;100.0
62458;BME280;48509;52.122;5.250;2024-03-02T05:00:51;99920.0;;;8.85;100.0
62458;BME280;48509;52.122;5.250;2024-03-02T05:02:27;99922.0;;;8.73;100.0
62458;BME280;48509;52.122;5.250;2024-03-02T05:04:03;99935.0;;;8.67;100.0
62458;BME280;48509;52.122;5.250;2024-03-02T05:07:15;99932.0;;;8.56;100.0
62458;BME280;48509;52.122;5.250;2024-03-02T05:08:51;99933.0;;;8.49;100.0
62458;BME280;48509;52.122;5.250;2024-03-02T05:10:27;99933.0;;;8.4;100.0
62458;BME280;48509;52.122;5.250;2024-03-02T05:13:41;99933.0;;;8.52;100.0
62458;BME280;48509;52.122;5.250;2024-03-02T05:15:17;99938.0;;;8.53;100.0
62458;BME280;48509;52.122;5.250;2024-03-02T05:16:53;99940.0;;;8.6;100.0
62458;BME280;48509;52.122;5.250;2024-03-02T05:18:29;99933.0;;;8.53;100.0
62458;BME280;48509;52.122;5.250;2024-03-02T05:21:43;99939.0;;;8.47;100.0
62458;BME280;48509;52.122;5.250;2024-03-02T05:23:19;99945.0;;;8.45;100.0
62458;BME280;48509;52.122;5.250;2024-03-02T05:24:56;99940.0;;;8.34;100.0
62458;BME280;48509;52.122;5.250;2024-03-02T05:28:09;99939.0;;;8.42;100.0
62458;BME280;48509;52.122;5.250;2024-03-02T05:29:45;99946.0;;;8.48;100.0
62458;BME280;48509;52.122;5.250;2024-03-02T05:31:21;99946.0;;;8.52;100.0
62458;BME280;48509;52.122;5.250;2024-03-02T05:34:33;99949.0;;;8.64;100.0
62458;BME280;48509;52.122;5.250;2024-03-02T05:36:09;99949.0;;;8.65;100.0
62458;BME280;48509;52.122;5.250;2024-03-02T05:37:45;99951.0;;;8.64;100.0
62458;BME280;48509;52.122;5.250;2024-03-02T05:40:58;99948.0;;;8.61;100.0
62458;BME280;48509;52.122;5.250;2024-03-02T05:42:34;99943.0;;;8.65;100.0
62458;BME280;48509;52.122;5.250;2024-03-02T05:44:10;99953.0;;;8.59;100.0
62458;BME280;48509;52.122;5.250;2024-03-02T05:45:46;99955.0;;;8.61;100.0
62458;BME280;48509;52.122;5.250;2024-03-02T05:48:59;99953.0;;;8.64;100.0
62458;BME280;48509;52.122;5.250;2024-03-02T05:50:35;99955.0;;;8.53;100.0
62458;BME280;48509;52.122;5.250;2024-03-02T05:52:11;99965.0;;;8.5;100.0
62458;BME280;48509;52.122;5.250;2024-03-02T05:55:24;99959.0;;;8.49;100.0
62458;BME280;48509;52.122;5.250;2024-03-02T05:57:00;99965.0;;;8.56;100.0
62458;BME280;48509;52.122;5.250;2024-03-02T05:58:36;99958.0;;;8.56;100.0
62458;BME280;48509;52.122;5.250;2024-03-02T06:01:49;99959.0;;;8.55;100.0
62458;BME280;48509;52.122;5.250;2024-03-02T06:03:25;99964.0;;;8.44;100.0
62458;BME280;48509;52.122;5.250;2024-03-02T06:05:01;99962.0;;;8.51;100.0
62458;BME280;48509;52.122;5.250;2024-03-02T06:06:37;99965.0;;;8.57;100.0
62458;BME280;48509;52.122;5.250;2024-03-02T06:09:49;99967.0;;;8.75;100.0
62458;BME280;48509;52.122;5.250;2024-03-02T06:11:25;99967.0;;;8.83;100.0
62458;BME280;48509;52.122;5.250;2024-03-02T06:13:02;99973.0;;;8.75;100.0
62458;BME280;48509;52.122;5.250;2024-03-02T06:16:14;99968.0;;;8.81;100.0
62458;BME280;48509;52.122;5.250;2024-03-02T06:17:50;99977.0;;;8.83;100.0
62458;BME280;48509;52.122;5.250;2024-03-02T06:19:26;99976.0;;;8.78;100.0
62458;BME280;48509;52.122;5.250;2024-03-02T06:22:39;99977.0;;;8.81;100.0
62458;BME280;48509;52.122;5.250;2024-03-02T06:24:15;99980.0;;;8.72;100.0
62458;BME280;48509;52.122;5.250;2024-03-02T06:25:51;99981.0;;;8.61;100.0
62458;BME280;48509;52.122;5.250;2024-03-02T06:29:04;99985.0;;;8.84;100.0
62458;BME280;48509;52.122;5.250;2024-03-02T06:30:40;99987.0;;;8.9;100.0
62458;BME280;48509;52.122;5.250;2024-03-02T06:32:16;99989.0;;;8.86;100.0
62458;BME280;48509;52.122;5.250;2024-03-02T06:33:52;99989.0;;;8.91;100.0
62458;BME280;48509;52.122;5.250;2024-03-02T06:37:04;100001.0;;;8.98;100.0
62458;BME280;48509;52.122;5.250;2024-03-02T06:38:40;99993.0;;;8.81;100.0
62458;BME280;48509;52.122;5.250;2024-03-02T06:40:16;99998.0;;;8.99;100.0
62458;BME280;48509;52.122;5.250;2024-03-02T06:43:29;99994.0;;;8.92;100.0
62458;BME280;48509;52.122;5.250;2024-03-02T06:45:05;99999.0;;;8.98;100.0
62458;BME280;48509;52.122;5.250;2024-03-02T06:46:42;99997.0;;;9.03;100.0
62458;BME280;48509;52.122;5.250;2024-03-02T06:49:55;99999.0;;;9.06;99.68
62458;BME280;48509;52.122;5.250;2024-03-02T06:51:33;100003.0;;;9.17;98.96
62458;BME280;48509;52.122;5.250;2024-03-02T06:53:09;100006.0;;;9.02;98.14
62458;BME280;48509;52.122;5.250;2024-03-02T06:54:45;100007.0;;;8.98;98.63
62458;BME280;48509;52.122;5.250;2024-03-02T06:57:58;99997.0;;;9.01;98.04
62458;BME280;48509;52.122;5.250;2024-03-02T06:59:34;99999.0;;;9.01;96.94
62458;BME280;48509;52.122;5.250;2024-03-02T07:01:10;99999.0;;;8.91;98.15
62458;BME280;48509;52.122;5.250;2024-03-02T07:04:22;99996.0;;;8.92;98.66
62458;BME280;48509;52.122;5.250;2024-03-02T07:05:58;100001.0;;;8.61;99.67
62458;BME280;48509;52.122;5.250;2024-03-02T07:07:34;100002.0;;;8.72;98.4
62458;BME280;48509;52.122;5.250;2024-03-02T07:10:47;99998.0;;;8.82;98.23
62458;BME280;48509;52.122;5.250;2024-03-02T07:12:23;99996.0;;;8.88;98.59
62458;BME280;48509;52.122;5.250;2024-03-02T07:13:59;99998.0;;;8.84;97.81
62458;BME280;48509;52.122;5.250;2024-03-02T07:17:14;100000.0;;;8.83;98.54
62458;BME280;48509;52.122;5.250;2024-03-02T07:18:50;100005.0;;;8.96;96.53
62458;BME280;48509;52.122;5.250;2024-03-02T07:20:26;100005.0;;;8.92;97.63
62458;BME280;48509;52.122;5.250;2024-03-02T07:22:06;100008.0;;;8.89;98.02
62458;BME280;48509;52.122;5.250;2024-03-02T07:25:18;100009.0;;;8.97;97.51
62458;BME280;48509;52.122;5.250;2024-03-02T07:26:54;100017.0;;;9.06;96.42
62458;BME280;48509;52.122;5.250;2024-03-02T07:28:31;100023.0;;;9.06;96.78
62458;BME280;48509;52.122;5.250;2024-03-02T07:31:44;100024.0;;;9.25;95.78
62458;BME280;48509;52.122;5.250;2024-03-02T07:33:20;100026.0;;;9.0;97.77
62458;BME280;48509;52.122;5.250;2024-03-02T07:34:56;100021.0;;;8.94;95.95
62458;BME280;48509;52.122;5.250;2024-03-02T07:36:32;100025.0;;;9.19;94.69
62458;BME280;48509;52.122;5.250;2024-03-02T07:39:44;100030.0;;;9.22;94.32
62458;BME280;48509;52.122;5.250;2024-03-02T07:41:20;100028.0;;;9.11;95.81
62458;BME280;48509;52.122;5.250;2024-03-02T07:42:56;100036.0;;;9.09;95.93
62458;BME280;48509;52.122;5.250;2024-03-02T07:46:09;100041.0;;;9.14;94.74
62458;BME280;48509;52.122;5.250;2024-03-02T07:47:45;100041.0;;;9.03;95.5
62458;BME280;48509;52.122;5.250;2024-03-02T07:49:25;100043.0;;;9.17;94.28
62458;BME280;48509;52.122;5.250;2024-03-02T07:52:37;100038.0;;;9.23;94.21
62458;BME280;48509;52.122;5.250;2024-03-02T07:54:13;100035.0;;;9.09;94.8
62458;BME280;48509;52.122;5.250;2024-03-02T07:55:49;100037.0;;;8.98;94.68
62458;BME280;48509;52.122;5.250;2024-03-02T07:59:02;100037.0;;;9.0;95.77
62458;BME280;48509;52.122;5.250;2024-03-02T08:00:39;100043.0;;;9.06;96.61
62458;BME280;48509;52.122;5.250;2024-03-02T08:02:15;100043.0;;;8.85;95.61
62458;BME280;48509;52.122;5.250;2024-03-02T08:03:51;100044.0;;;8.96;96.0
62458;BME280;48509;52.122;5.250;2024-03-02T08:07:03;100047.0;;;8.9;97.19
62458;BME280;48509;52.122;5.250;2024-03-02T08:08:40;100057.0;;;8.98;97.0
62458;BME280;48509;52.122;5.250;2024-03-02T08:10:16;100049.0;;;8.84;97.64
62458;BME280;48509;52.122;5.250;2024-03-02T08:13:28;100048.0;;;8.76;97.67
62458;BME280;48509;52.122;5.250;2024-03-02T08:15:05;100047.0;;;8.81;97.33
62458;BME280;48509;52.122;5.250;2024-03-02T08:16:42;100046.0;;;8.85;97.25
62458;BME280;48509;52.122;5.250;2024-03-02T08:19:54;100055.0;;;8.98;97.02
62458;BME280;48509;52.122;5.250;2024-03-02T08:21:33;100051.0;;;9.09;96.8
62458;BME280;48509;52.122;5.250;2024-03-02T08:23:09;100047.0;;;9.15;96.83
62458;BME280;48509;52.122;5.250;2024-03-02T08:24:45;100046.0;;;9.11;97.1
62458;BME280;48509;52.122;5.250;2024-03-02T08:27:58;100049.0;;;9.09;97.64
62458;BME280;48509;52.122;5.250;2024-03-02T08:29:33;100049.0;;;9.17;95.43
62458;BME280;48509;52.122;5.250;2024-03-02T08:31:09;100050.0;;;9.26;95.89
62458;BME280;48509;52.122;5.250;2024-03-02T08:34:25;100045.0;;;9.23;96.89
62458;BME280;48509;52.122;5.250;2024-03-02T08:36:01;100049.0;;;9.23;96.73
62458;BME280;48509;52.122;5.250;2024-03-02T08:37:39;100043.0;;;9.13;96.11
62458;BME280;48509;52.122;5.250;2024-03-02T08:40:53;100039.0;;;9.28;96.56
62458;BME280;48509;52.122;5.250;2024-03-02T08:42:29;100037.0;;;9.4;95.17
62458;BME280;48509;52.122;5.250;2024-03-02T08:44:05;100033.0;;;9.38;96.08
62458;BME280;48509;52.122;5.250;2024-03-02T08:45:42;100040.0;;;9.5;95.56
62458;BME280;48509;52.122;5.250;2024-03-02T08:48:55;100032.0;;;9.75;93.81
62458;BME280;48509;52.122;5.250;2024-03-02T08:50:31;100033.0;;;9.86;93.6
62458;BME280;48509;52.122;5.250;2024-03-02T08:52:07;100028.0;;;9.97;94.6
62458;BME280;48509;52.122;5.250;2024-03-02T08:55:19;100037.0;;;10.06;92.67
62458;BME280;48509;52.122;5.250;2024-03-02T08:56:55;100036.0;;;10.03;92.06
62458;BME280;48509;52.122;5.250;2024-03-02T08:58:31;100035.0;;;10.18;91.83
62458;BME280;48509;52.122;5.250;2024-03-02T09:01:44;100040.0;;;10.23;92.22
62458;BME280;48509;52.122;5.250;2024-03-02T09:03:20;100040.0;;;10.27;92.11
62458;BME280;48509;52.122;5.250;2024-03-02T09:04:57;100044.0;;;10.44;91.91
62458;BME280;48509;52.122;5.250;2024-03-02T09:06:33;100034.0;;;10.35;90.08
62458;BME280;48509;52.122;5.250;2024-03-02T09:09:45;100053.0;;;10.46;91.37
62458;BME280;48509;52.122;5.250;2024-03-02T09:11:21;100055.0;;;10.47;89.33
62458;BME280;48509;52.122;5.250;2024-03-02T09:12:58;100049.0;;;10.52;88.9
62458;BME280;48509;52.122;5.250;2024-03-02T09:16:12;100053.0;;;10.55;90.01
62458;BME280;48509;52.122;5.250;2024-03-02T09:17:48;100060.0;;;10.65;90.43
62458;BME280;48509;52.122;5.250;2024-03-02T09:19:24;100063.0;;;10.71;91.9
62458;BME280;48509;52.122;5.250;2024-03-02T09:22:36;100061.0;;;10.84;88.77
62458;BME280;48509;52.122;5.250;2024-03-02T09:24:12;100068.0;;;10.85;88.55
62458;BME280;48509;52.122;5.250;2024-03-02T09:25:48;100053.0;;;10.9;87.45
62458;BME280;48509;52.122;5.250;2024-03-02T09:29:00;100059.0;;;10.88;86.12
62458;BME280;48509;52.122;5.250;2024-03-02T09:30:36;100064.0;;;10.98;86.08
62458;BME280;48509;52.122;5.250;2024-03-02T09:32:13;100060.0;;;10.91;86.75
62458;BME280;48509;52.122;5.250;2024-03-02T09:33:49;100067.0;;;11.08;85.79
62458;BME280;48509;52.122;5.250;2024-03-02T09:37:02;100064.0;;;11.02;86.64
62458;BME280;48509;52.122;5.250;2024-03-02T09:38:38;100060.0;;;11.13;85.0
62458;BME280;48509;52.122;5.250;2024-03-02T09:40:14;100067.0;;;11.25;83.59
62458;BME280;48509;52.122;5.250;2024-03-02T09:43:26;100067.0;;;11.31;83.03
62458;BME280;48509;52.122;5.250;2024-03-02T09:45:03;100067.0;;;11.21;81.22
62458;BME280;48509;52.122;5.250;2024-03-02T09:46:39;100061.0;;;11.29;82.8
62458;BME280;48509;52.122;5.250;2024-03-02T09:49:51;100061.0;;;11.39;80.74
62458;BME280;48509;52.122;5.250;2024-03-02T09:51:28;100068.0;;;11.27;79.37
62458;BME280;48509;52.122;5.250;2024-03-02T09:53:04;100060.0;;;11.35;82.36
62458;BME280;48509;52.122;5.250;2024-03-02T09:54:41;100065.0;;;11.58;81.06
62458;BME280;48509;52.122;5.250;2024-03-02T09:57:53;100057.0;;;11.62;79.7
62458;BME280;48509;52.122;5.250;2024-03-02T09:59:29;100062.0;;;11.75;80.11
62458;BME280;48509;52.122;5.250;2024-03-02T10:01:05;100064.0;;;11.85;78.83
62458;BME280;48509;52.122;5.250;2024-03-02T10:04:18;100059.0;;;11.9;80.67
62458;BME280;48509;52.122;5.250;2024-03-02T10:05:53;100059.0;;;11.93;80.55
62458;BME280;48509;52.122;5.250;2024-03-02T10:07:30;100061.0;;;11.82;79.05
62458;BME280;48509;52.122;5.250;2024-03-02T10:10:42;100062.0;;;11.82;76.27
62458;BME280;48509;52.122;5.250;2024-03-02T10:12:18;100070.0;;;11.68;78.5
62458;BME280;48509;52.122;5.250;2024-03-02T10:14:07;100070.0;;;11.59;77.66
62458;BME280;48509;52.122;5.250;2024-03-02T10:15:44;100074.0;;;11.57;77.87
62458;BME280;48509;52.122;5.250;2024-03-02T10:18:56;100074.0;;;11.52;76.61
62458;BME280;48509;52.122;5.250;2024-03-02T10:20:32;100069.0;;;11.72;78.44
62458;BME280;48509;52.122;5.250;2024-03-02T10:22:09;100076.0;;;11.53;79.47
62458;BME280;48509;52.122;5.250;2024-03-02T10:25:30;100066.0;;;11.66;76.22
62458;BME280;48509;52.122;5.250;2024-03-02T10:27:08;100071.0;;;11.59;76.5
62458;BME280;48509;52.122;5.250;2024-03-02T10:28:46;100065.0;;;11.7;77.11
62458;BME280;48509;52.122;5.250;2024-03-02T10:30:22;100060.0;;;11.69;75.83
62458;BME280;48509;52.122;5.250;2024-03-02T10:33:39;100053.0;;;11.77;74.77
62458;BME280;48509;52.122;5.250;2024-03-02T10:35:16;100065.0;;;11.76;77.05
62458;BME280;48509;52.122;5.250;2024-03-02T10:36:53;100058.0;;;11.79;75.69
62458;BME280;48509;52.122;5.250;2024-03-02T10:40:08;100057.0;;;11.88;73.47
62458;BME280;48509;52.122;5.250;2024-03-02T10:41:49;100059.0;;;11.85;72.41
62458;BME280;48509;52.122;5.250;2024-03-02T10:43:28;100050.0;;;11.88;74.55
62458;BME280;48509;52.122;5.250;2024-03-02T10:45:06;100060.0;;;11.79;74.2
62458;BME280;48509;52.122;5.250;2024-03-02T10:48:25;100055.0;;;11.86;75.3
62458;BME280;48509;52.122;5.250;2024-03-02T10:50:04;100050.0;;;11.9;76.44
62458;BME280;48509;52.122;5.250;2024-03-02T10:51:41;100042.0;;;12.04;74.95
62458;BME280;48509;52.122;5.250;2024-03-02T10:53:17;100050.0;;;11.96;73.78
62458;BME280;48509;52.122;5.250;2024-03-02T10:56:31;100036.0;;;12.04;75.17
62458;BME280;48509;52.122;5.250;2024-03-02T10:58:12;100037.0;;;12.02;72.61
62458;BME280;48509;52.122;5.250;2024-03-02T10:59:52;100027.0;;;12.22;73.78
62458;BME280;48509;52.122;5.250;2024-03-02T11:03:11;100030.0;;;12.08;72.16
62458;BME280;48509;52.122;5.250;2024-03-02T11:04:49;100023.0;;;12.08;71.62
62458;BME280;48509;52.122;5.250;2024-03-02T11:06:28;100026.0;;;12.14;72.42
62458;BME280;48509;52.122;5.250;2024-03-02T11:08:07;100028.0;;;12.26;71.48
62458;BME280;48509;52.122;5.250;2024-03-02T11:11:32;100032.0;;;12.3;69.38
62458;BME280;48509;52.122;5.250;2024-03-02T11:13:12;100030.0;;;12.21;72.17
62458;BME280;48509;52.122;5.250;2024-03-02T11:14:48;100040.0;;;12.28;71.06
62458;BME280;48509;52.122;5.250;2024-03-02T11:16:32;100028.0;;;12.39;71.74
62458;BME280;48509;52.122;5.250;2024-03-02T11:19:47;100026.0;;;12.37;72.19